Time;durP1;ratioP1;P1;durP2;ratioP2;P2;SDS_P1;SDS_P2;PMS_P1;PMS_P2;Temp;Humidity;BMP_temperature;BMP_pressure;BME280_temperature;BME280_humidity;BME280_pressure;Samples;Min_cycle;Max_cycle;Signal;HPM_P1;HPM_P2
2024/03/12 00:02:25;;;;;;;3.95;0.95;;;;;;;6.82;100.00;96611.28;1224115;75;2918352;-67
2024/03/12 00:04:57;;;;;;;1.35;0.90;;;;;;;6.78;100.00;96616.16;1221903;75;2924537;-66
2024/03/12 00:07:33;;;;;;;2.20;0.80;;;;;;;6.78;100.00;96616.16;1223483;75;2920295;-64
2024/03/12 00:10:09;;;;;;;2.30;0.95;;;;;;;6.85;100.00;96623.19;1223517;75;2919308;-66
2024/03/12 00:12:43;;;;;;;1.20;0.90;;;;;;;6.85;100.00;96620.44;1223151;75;2924486;-65
2024/03/12 00:15:17;;;;;;;1.80;1.30;;;;;;;7.02;100.00;96622.16;1223395;75;2923017;-67
2024/03/12 00:17:51;;;;;;;1.90;1.00;;;;;;;6.95;100.00;96625.31;1224420;75;2919816;-65
2024/03/12 00:20:29;;;;;;;1.45;1.15;;;;;;;6.96;100.00;96615.16;1224317;75;2924858;-66
2024/03/12 00:23:06;;;;;;;2.40;1.00;;;;;;;6.97;100.00;96606.50;1224684;75;2927353;-66
2024/03/12 00:25:40;;;;;;;1.30;0.75;;;;;;;7.02;100.00;96614.00;1224220;83;2918491;-65
2024/03/12 00:28:13;;;;;;;1.35;0.95;;;;;;;7.12;100.00;96617.34;1223197;75;2930599;-65
2024/03/12 00:30:46;;;;;;;0.70;0.70;;;;;;;7.02;100.00;96616.72;1224152;67;2933485;-63
2024/03/12 00:33:20;;;;;;;1.30;0.90;;;;;;;6.89;100.00;96618.28;1224717;75;2915629;-65
2024/03/12 00:35:53;;;;;;;1.30;1.00;;;;;;;7.13;100.00;96621.53;1223576;75;2919218;-65
2024/03/12 00:38:29;;;;;;;1.85;0.80;;;;;;;7.13;100.00;96620.78;1224602;75;2919826;-64
2024/03/12 00:41:01;;;;;;;1.00;0.90;;;;;;;7.17;100.00;96621.34;1224069;75;2941769;-67
2024/03/12 00:43:35;;;;;;;1.10;0.90;;;;;;;7.20;100.00;96629.28;1225474;75;2927275;-65
2024/03/12 00:46:10;;;;;;;1.20;0.85;;;;;;;7.01;100.00;96628.81;1224787;75;2920961;-66
2024/03/12 00:48:45;;;;;;;1.35;0.80;;;;;;;7.28;100.00;96624.16;1224098;75;2918442;-65
2024/03/12 00:51:19;;;;;;;1.00;0.70;;;;;;;7.14;100.00;96620.31;1223501;75;2922600;-65
2024/03/12 00:53:55;;;;;;;0.60;0.60;;;;;;;7.06;100.00;96626.66;1224016;75;2925073;-67
2024/03/12 00:56:28;;;;;;;0.90;0.80;;;;;;;7.01;100.00;96619.91;1224127;75;2927231;-63
2024/03/12 00:59:01;;;;;;;0.95;0.60;;;;;;;7.17;100.00;96632.97;1224318;75;2919170;-62
2024/03/12 01:01:34;;;;;;;1.40;0.70;;;;;;;7.08;100.00;96624.94;1223736;75;2929461;-64
2024/03/12 01:04:07;;;;;;;0.80;0.75;;;;;;;6.93;100.00;96616.84;1223673;75;2931561;-64
2024/03/12 01:06:40;;;;;;;0.80;0.70;;;;;;;6.85;100.00;96621.19;1224826;75;2926892;-66
2024/03/12 01:09:17;;;;;;;1.65;1.00;;;;;;;6.93;100.00;96625.03;1224361;75;2921213;-65
2024/03/12 01:11:52;;;;;;;1.15;0.80;;;;;;;7.18;100.00;96631.75;1223522;75;2928486;-66
2024/03/12 01:14:25;;;;;;;0.70;0.60;;;;;;;7.05;100.00;96615.03;1223785;75;2925817;-64
2024/03/12 01:16:58;;;;;;;0.60;0.55;;;;;;;7.13;100.00;96621.53;1224209;75;2926236;-65
2024/03/12 01:19:31;;;;;;;0.95;0.60;;;;;;;6.94;100.00;96620.31;1224561;75;2927321;-64
2024/03/12 01:22:04;;;;;;;1.00;0.80;;;;;;;7.04;100.00;96618.94;1224478;75;2919371;-65
2024/03/12 01:24:43;;;;;;;1.60;1.00;;;;;;;6.56;100.00;96616.63;1223737;75;2937816;-65
2024/03/12 01:27:16;;;;;;;1.30;1.05;;;;;;;6.69;100.00;96627.94;1224255;75;2925663;-64
2024/03/12 01:29:49;;;;;;;1.05;0.90;;;;;;;6.80;100.00;96619.16;1224159;75;2916305;-65
2024/03/12 01:32:21;;;;;;;1.70;1.05;;;;;;;6.62;100.00;96606.56;1225117;75;2913290;-65
2024/03/12 01:34:54;;;;;;;1.75;0.90;;;;;;;6.71;100.00;96609.19;1224046;75;2921756;-66
2024/03/12 01:37:29;;;;;;;1.00;0.90;;;;;;;6.90;100.00;96614.34;1224843;75;2917377;-64
2024/03/12 01:40:19;;;;;;;1.90;1.20;;;;;;;6.65;100.00;96611.06;1224103;75;2925856;-64
2024/03/12 01:42:53;;;;;;;1.40;1.20;;;;;;;6.59;100.00;96608.28;1224143;75;2922241;-65
2024/03/12 01:45:28;;;;;;;1.85;1.15;;;;;;;6.69;100.00;96606.19;1223917;75;2920652;-64
2024/03/12 01:48:07;;;;;;;1.70;1.25;;;;;;;6.46;100.00;96607.84;1224727;75;2916293;-64
2024/03/12 01:50:41;;;;;;;0.90;0.85;;;;;;;6.73;100.00;96622.28;1224838;75;2909995;-65
2024/03/12 01:53:15;;;;;;;1.35;1.00;;;;;;;6.45;100.00;96613.78;1223567;75;2921451;-65
2024/03/12 01:55:51;;;;;;;1.20;0.90;;;;;;;6.63;100.00;96626.34;1223398;75;2952565;-66
2024/03/12 01:58:24;;;;;;;1.45;1.05;;;;;;;6.66;100.00;96631.59;1223635;75;2923762;-63
2024/03/12 02:00:57;;;;;;;1.45;0.90;;;;;;;6.79;100.00;96625.84;1223250;75;2926186;-67
2024/03/12 02:03:35;;;;;;;2.00;1.40;;;;;;;6.76;100.00;96626.78;1223718;75;2919936;-64
2024/03/12 02:06:08;;;;;;;0.80;0.70;;;;;;;6.68;100.00;96625.69;1223664;75;2923681;-67
2024/03/12 02:08:41;;;;;;;1.90;1.30;;;;;;;6.34;100.00;96628.69;1223175;75;2920661;-66
2024/03/12 02:11:16;;;;;;;3.25;1.40;;;;;;;6.61;100.00;96622.16;1223810;75;2920374;-65
2024/03/12 02:13:51;;;;;;;2.45;1.80;;;;;;;6.46;100.00;96613.28;1223673;75;2921538;-61
2024/03/12 02:16:24;;;;;;;2.45;1.40;;;;;;;6.70;100.00;96607.66;1223235;75;2926171;-65
2024/03/12 02:18:57;;;;;;;2.05;1.10;;;;;;;6.90;100.00;96611.59;1223216;75;2917033;-62
2024/03/12 02:21:30;;;;;;;1.20;0.70;;;;;;;6.97;100.00;96601.06;1223359;75;2950472;-64
2024/03/12 02:24:05;;;;;;;2.55;0.80;;;;;;;7.20;100.00;96609.50;1223857;75;2923765;-64
2024/03/12 02:26:39;;;;;;;1.70;0.60;;;;;;;7.05;100.00;96606.88;1224128;75;2917336;-64
2024/03/12 02:29:13;;;;;;;0.95;0.70;;;;;;;7.18;100.00;96623.56;1223597;75;2926751;-64
2024/03/12 02:31:46;;;;;;;1.05;0.50;;;;;;;7.59;100.00;96625.47;1222923;75;2923774;-63
2024/03/12 02:34:19;;;;;;;0.50;0.50;;;;;;;7.68;100.00;96614.44;1223597;75;2923775;-65
2024/03/12 02:36:51;;;;;;;0.40;0.40;;;;;;;7.71;100.00;96618.16;1224035;75;2924276;-64
2024/03/12 02:39:27;;;;;;;0.40;0.40;;;;;;;7.71;100.00;96618.16;1223119;75;2925074;-65
2024/03/12 02:42:00;;;;;;;0.90;0.50;;;;;;;7.81;100.00;96616.75;1223684;75;2926212;-66
2024/03/12 02:44:33;;;;;;;0.90;0.60;;;;;;;7.91;100.00;96623.53;1223500;75;2924419;-65
2024/03/12 02:47:05;;;;;;;0.45;0.40;;;;;;;7.80;100.00;96620.72;1223634;75;2920454;-65
2024/03/12 02:49:38;;;;;;;0.65;0.50;;;;;;;7.64;100.00;96617.34;1223888;75;2919806;-64
2024/03/12 02:52:12;;;;;;;1.05;0.90;;;;;;;7.45;100.00;96622.38;1223363;75;2921321;-65
2024/03/12 02:54:48;;;;;;;1.35;0.90;;;;;;;7.49;100.00;96615.97;1222642;75;2943717;-64
2024/03/12 02:57:21;;;;;;;1.05;0.70;;;;;;;7.40;100.00;96608.69;1201895;75;4620771;-64
2024/03/12 02:59:54;;;;;;;2.75;0.70;;;;;;;7.63;100.00;96613.16;1223387;75;2933408;-63
2024/03/12 03:02:29;;;;;;;6.30;0.70;;;;;;;7.93;92.40;96614.88;1224004;75;2921050;-64
2024/03/12 03:05:01;;;;;;;0.30;0.30;;;;;;;8.02;90.91;96609.25;1223339;75;2927189;-64
2024/03/12 03:07:35;;;;;;;0.20;0.20;;;;;;;8.07;90.83;96619.47;1223397;75;2930924;-65
2024/03/12 03:10:12;;;;;;;0.30;0.30;;;;;;;8.21;86.40;96607.66;1223825;75;2921255;-64
2024/03/12 03:12:45;;;;;;;0.30;0.30;;;;;;;8.26;87.02;96606.22;1223620;75;2925239;-63
2024/03/12 03:15:20;;;;;;;0.55;0.30;;;;;;;8.18;91.35;96608.66;1224336;75;2925735;-66
2024/03/12 03:17:53;;;;;;;0.40;0.40;;;;;;;8.30;85.38;96620.38;1223864;75;2927927;-65
2024/03/12 03:20:26;;;;;;;0.55;0.55;;;;;;;8.36;86.90;96609.50;1223231;75;2926433;-64
2024/03/12 03:22:59;;;;;;;0.80;0.50;;;;;;;8.25;86.68;96610.94;1222982;83;2923362;-64
2024/03/12 03:25:34;;;;;;;4.00;0.40;;;;;;;8.39;83.12;96627.59;1222392;75;2925738;-62
2024/03/12 03:28:08;;;;;;;1.65;0.45;;;;;;;8.51;81.22;96623.75;1223398;75;2922739;-63
2024/03/12 03:30:41;;;;;;;0.50;0.50;;;;;;;8.40;85.51;96618.25;1223256;75;2921412;-66
2024/03/12 03:33:15;;;;;;;0.80;0.50;;;;;;;8.14;94.61;96618.28;1224206;75;2934099;-67
2024/03/12 03:35:51;;;;;;;0.35;0.35;;;;;;;8.31;87.83;96619.13;1224086;75;2921415;-65
2024/03/12 03:38:24;;;;;;;1.60;0.60;;;;;;;8.20;96.36;96628.00;1223233;75;2926032;-65
2024/03/12 03:41:01;;;;;;;0.40;0.40;;;;;;;8.12;97.04;96626.94;1222788;75;2935399;-64
2024/03/12 03:43:34;;;;;;;1.30;0.60;;;;;;;8.11;92.21;96620.72;1223494;67;2927460;-64
2024/03/12 03:46:07;;;;;;;0.35;0.35;;;;;;;8.22;90.03;96628.22;1223240;75;2953018;-65
2024/03/12 03:48:40;;;;;;;0.30;0.30;;;;;;;8.15;89.63;96623.22;1223975;75;2926011;-63
2024/03/12 03:51:14;;;;;;;0.40;0.40;;;;;;;8.37;85.60;96630.84;1223589;75;2926510;-64
2024/03/12 03:53:47;;;;;;;0.35;0.35;;;;;;;8.36;86.54;96634.03;1225005;75;2937268;-65
2024/03/12 03:56:23;;;;;;;0.50;0.40;;;;;;;8.66;78.26;96623.56;1223645;75;2923472;-63
2024/03/12 03:58:57;;;;;;;0.30;0.30;;;;;;;8.77;76.51;96625.63;1223892;75;2922138;-65
2024/03/12 04:01:31;;;;;;;0.30;0.30;;;;;;;8.79;76.80;96640.28;1224125;75;2919993;-63
2024/03/12 04:04:10;;;;;;;0.35;0.30;;;;;;;8.75;76.15;96637.03;1224012;75;2916974;-64
2024/03/12 04:06:43;;;;;;;0.90;0.30;;;;;;;8.90;77.19;96648.53;1223575;75;2956025;-64
2024/03/12 04:09:16;;;;;;;0.50;0.30;;;;;;;8.91;75.22;96646.53;1223433;75;2926374;-63
2024/03/12 04:11:52;;;;;;;0.50;0.40;;;;;;;9.02;72.44;96649.34;1223325;75;2928450;-64
2024/03/12 04:14:25;;;;;;;0.65;0.30;;;;;;;9.13;73.35;96652.09;1223382;75;2917920;-66
2024/03/12 04:16:58;;;;;;;0.30;0.30;;;;;;;9.06;73.55;96651.81;1224528;75;2913634;-63
2024/03/12 04:19:35;;;;;;;0.45;0.30;;;;;;;8.99;75.73;96650.28;1223832;75;2921417;-65
2024/03/12 04:22:07;;;;;;;0.50;0.40;;;;;;;9.02;77.76;96665.72;1224455;75;2919374;-64
2024/03/12 04:24:40;;;;;;;0.40;0.25;;;;;;;8.78;80.57;96666.09;1223669;75;2920520;-65
2024/03/12 04:27:16;;;;;;;0.30;0.30;;;;;;;8.76;82.53;96668.56;1223762;75;2931139;-63
2024/03/12 04:29:49;;;;;;;0.60;0.50;;;;;;;8.74;80.57;96666.31;1224628;75;2927701;-64
2024/03/12 04:32:22;;;;;;;0.30;0.20;;;;;;;8.69;82.29;96682.66;1223548;75;2929214;-64
2024/03/12 04:34:55;;;;;;;0.40;0.30;;;;;;;8.71;76.35;96674.72;1223547;75;2933906;-65
2024/03/12 04:37:31;;;;;;;0.30;0.30;;;;;;;8.67;80.25;96669.47;1223906;75;2920055;-63
2024/03/12 04:40:07;;;;;;;0.30;0.30;;;;;;;8.60;79.67;96677.38;1222869;75;2935098;-65
2024/03/12 04:42:45;;;;;;;0.40;0.20;;;;;;;8.76;82.45;96676.75;1224508;75;2923958;-64
2024/03/12 04:45:18;;;;;;;0.80;0.40;;;;;;;8.63;82.82;96681.84;1223918;75;2917878;-65
2024/03/12 04:47:51;;;;;;;0.20;0.20;;;;;;;8.56;79.33;96682.28;1223355;75;2922527;-63
2024/03/12 04:50:25;;;;;;;0.20;0.20;;;;;;;8.67;76.17;96690.56;1223487;75;2933481;-65
2024/03/12 04:52:57;;;;;;;0.35;0.30;;;;;;;9.02;71.04;96681.31;1222320;75;2926802;-64
2024/03/12 04:55:32;;;;;;;0.20;0.20;;;;;;;9.14;69.66;96680.91;1222643;75;2936811;-64
2024/03/12 04:58:08;;;;;;;0.95;0.50;;;;;;;9.00;71.29;96697.47;1222333;75;2934527;-63
2024/03/12 05:00:41;;;;;;;0.95;0.80;;;;;;;8.86;73.43;96704.59;1221308;75;2924325;-65
2024/03/12 05:03:15;;;;;;;0.90;0.70;;;;;;;8.93;75.01;96706.84;1223110;75;2927424;-65
2024/03/12 05:05:48;;;;;;;0.45;0.45;;;;;;;9.05;74.67;96710.41;1222650;75;2932397;-64
2024/03/12 05:08:21;;;;;;;0.30;0.30;;;;;;;9.12;72.03;96704.47;1223459;75;2926379;-66
2024/03/12 05:10:54;;;;;;;0.70;0.35;;;;;;;9.07;69.70;96705.94;1222572;75;2932332;-65
2024/03/12 05:13:29;;;;;;;0.30;0.30;;;;;;;9.12;71.42;96705.22;1223567;75;2929525;-64
2024/03/12 05:16:02;;;;;;;2.45;0.40;;;;;;;9.16;68.79;96716.66;1223116;75;2925838;-66
2024/03/12 05:18:35;;;;;;;0.20;0.20;;;;;;;9.17;68.35;96717.41;1223745;75;2928230;-64
2024/03/12 05:21:08;;;;;;;0.20;0.20;;;;;;;9.18;70.22;96716.91;1224022;75;2939082;-65
2024/03/12 05:23:41;;;;;;;0.25;0.25;;;;;;;9.16;72.39;96726.81;1223326;75;2924207;-67
2024/03/12 05:26:14;;;;;;;0.40;0.30;;;;;;;9.11;72.85;96741.19;1220922;75;2958484;-64
2024/03/12 05:28:52;;;;;;;0.30;0.30;;;;;;;9.01;73.78;96743.38;1223356;75;2928402;-64
2024/03/12 05:31:29;;;;;;;0.40;0.40;;;;;;;9.13;73.04;96739.47;1222571;75;2930978;-64
2024/03/12 05:34:03;;;;;;;0.45;0.45;;;;;;;9.08;69.79;96747.63;1223158;75;2927056;-66
2024/03/12 05:36:40;;;;;;;0.40;0.30;;;;;;;9.27;66.90;96746.00;1223115;75;2930246;-65
2024/03/12 05:39:18;;;;;;;0.20;0.20;;;;;;;9.31;68.77;96753.97;1222988;75;2929403;-67
2024/03/12 05:48:07;;;;;;;0.20;0.20;;;;;;;8.99;71.39;96764.94;1223483;75;2925239;-64
2024/03/12 05:50:17;;;;;;;1.15;0.90;;;;;;;9.26;67.84;96771.81;1223448;75;2920198;-63
2024/03/12 05:52:51;;;;;;;1.00;0.70;;;;;;;9.21;69.57;96780.72;1223408;75;2925560;-63
2024/03/12 05:55:24;;;;;;;15.65;9.30;;;;;;;9.31;70.78;96781.28;1222879;75;2936426;-62
2024/03/12 05:57:59;;;;;;;7.55;5.55;;;;;;;9.30;66.24;96780.53;1224177;75;2922544;-65
2024/03/12 06:00:34;;;;;;;3.95;3.00;;;;;;;9.45;66.50;96779.59;1223354;75;2934187;-65
2024/03/12 06:03:07;;;;;;;2.50;2.10;;;;;;;9.39;67.78;96790.50;1223768;75;2924720;-63
2024/03/12 06:05:41;;;;;;;3.45;2.10;;;;;;;9.38;66.34;96803.44;1223193;75;2911492;-64
2024/03/12 06:08:14;;;;;;;6.80;4.45;;;;;;;9.52;69.31;96799.00;1223067;75;2943026;-63
2024/03/12 06:10:46;;;;;;;7.00;4.65;;;;;;;9.39;70.37;96804.16;1223532;75;2928067;-63
2024/03/12 06:13:20;;;;;;;2.80;2.00;;;;;;;9.47;65.78;96809.91;1223949;75;2938582;-64
2024/03/12 06:15:55;;;;;;;2.05;1.30;;;;;;;9.60;65.78;96810.25;1223166;75;2926034;-65
2024/03/12 06:18:29;;;;;;;1.45;1.15;;;;;;;9.55;68.55;96802.78;1223971;75;2928007;-63
2024/03/12 06:21:01;;;;;;;0.50;0.50;;;;;;;9.36;68.21;96805.16;1222854;75;2924850;-64
2024/03/12 06:23:36;;;;;;;0.20;0.20;;;;;;;9.41;67.74;96815.34;1222602;75;2935023;-64
2024/03/12 06:26:09;;;;;;;0.65;0.40;;;;;;;9.49;68.25;96823.84;1222753;75;2920243;-64
2024/03/12 06:28:42;;;;;;;0.40;0.40;;;;;;;9.59;67.16;96836.06;1219497;75;3074472;-64
2024/03/12 06:31:18;;;;;;;0.35;0.35;;;;;;;9.62;65.06;96832.38;1222657;75;2923112;-63
2024/03/12 06:33:51;;;;;;;1.55;0.55;;;;;;;9.54;66.24;96839.50;1223194;75;2940447;-65
2024/03/12 06:36:24;;;;;;;2.70;0.50;;;;;;;9.16;71.15;96841.50;1224258;75;2850285;-64
2024/03/12 06:38:57;;;;;;;0.70;0.40;;;;;;;9.49;70.31;96845.69;1222349;75;2953990;-65
2024/03/12 06:41:31;;;;;;;0.90;0.40;;;;;;;9.53;65.38;96835.28;1223804;75;2925199;-64
2024/03/12 06:44:07;;;;;;;0.30;0.30;;;;;;;9.60;63.67;96845.75;1222972;75;2927736;-67
2024/03/12 06:46:44;;;;;;;0.95;0.30;;;;;;;9.64;63.42;96849.00;1223692;75;2936319;-64
2024/03/12 06:49:19;;;;;;;0.30;0.30;;;;;;;9.69;63.87;96845.56;1224208;75;2933644;-64
2024/03/12 06:51:53;;;;;;;1.00;0.25;;;;;;;9.82;67.84;96856.06;1223576;75;2924766;-64
2024/03/12 06:54:26;;;;;;;0.30;0.30;;;;;;;9.88;67.07;96850.59;1223153;75;2929180;-65
2024/03/12 06:56:59;;;;;;;0.30;0.20;;;;;;;9.82;64.36;96854.06;1223970;75;2924903;-65
2024/03/12 06:59:32;;;;;;;0.20;0.20;;;;;;;9.81;64.51;96852.59;1223352;75;2924321;-66
2024/03/12 07:02:08;;;;;;;0.30;0.30;;;;;;;9.79;64.14;96871.47;1223637;75;2924024;-65
2024/03/12 07:04:47;;;;;;;0.35;0.30;;;;;;;9.98;66.15;96868.28;1223538;75;2920152;-64
2024/03/12 07:07:21;;;;;;;0.70;0.30;;;;;;;9.89;63.83;96877.47;1224165;75;2923536;-65
2024/03/12 07:09:59;;;;;;;0.50;0.40;;;;;;;9.89;63.47;96877.47;1223058;75;2943923;-64
2024/03/12 07:12:33;;;;;;;0.40;0.30;;;;;;;9.89;63.47;96876.72;1205241;75;3084531;-63
2024/03/12 07:15:06;;;;;;;0.30;0.30;;;;;;;10.03;64.62;96878.53;1222271;75;2922427;-64
2024/03/12 07:17:41;;;;;;;0.65;0.40;;;;;;;9.87;64.99;96888.13;1223760;75;2924419;-64
2024/03/12 07:20:15;;;;;;;0.50;0.50;;;;;;;9.90;62.85;96878.94;1224006;75;2923768;-64
2024/03/12 07:22:48;;;;;;;2.05;1.10;;;;;;;9.87;61.46;96885.41;1223703;75;2920890;-66
2024/03/12 07:25:21;;;;;;;2.40;1.60;;;;;;;9.93;61.90;96878.00;1222543;75;2924878;-67
2024/03/12 07:27:53;;;;;;;2.10;1.00;;;;;;;10.00;61.22;96884.97;1222665;75;2929702;-63
2024/03/12 07:30:27;;;;;;;0.40;0.40;;;;;;;10.03;62.18;96894.94;1222760;75;2927228;-64
2024/03/12 07:33:02;;;;;;;0.30;0.30;;;;;;;10.05;61.01;96894.44;1223256;75;2921295;-65
2024/03/12 07:35:37;;;;;;;0.70;0.40;;;;;;;10.08;61.02;96893.44;1223392;75;2922507;-63
2024/03/12 07:38:10;;;;;;;0.75;0.40;;;;;;;9.95;61.34;96896.63;1223791;75;2938732;-62
2024/03/12 07:40:43;;;;;;;0.75;0.40;;;;;;;10.05;60.70;96894.44;1223442;75;2927340;-64
2024/03/12 07:43:16;;;;;;;6.70;0.90;;;;;;;10.08;60.49;96896.16;1224210;75;2921435;-64
2024/03/12 07:45:51;;;;;;;3.60;0.60;;;;;;;10.10;60.61;96908.16;1224342;75;2918561;-64
2024/03/12 07:48:27;;;;;;;0.65;0.50;;;;;;;10.14;60.83;96894.97;1222465;75;2927395;-64
2024/03/12 07:51:00;;;;;;;4.95;0.70;;;;;;;10.09;60.14;96908.63;1222362;75;2920348;-64
2024/03/12 07:53:33;;;;;;;1.25;0.50;;;;;;;10.14;60.47;96908.63;1223030;75;2928778;-64
2024/03/12 07:56:06;;;;;;;2.20;0.30;;;;;;;10.09;59.44;96909.38;1223183;75;2927308;-65
2024/03/12 07:58:40;;;;;;;1.25;0.40;;;;;;;10.09;60.58;96916.81;1223326;75;2932701;-66
2024/03/12 08:01:14;;;;;;;0.40;0.30;;;;;;;10.13;59.66;96920.09;1222491;75;2931591;-64
2024/03/12 08:03:49;;;;;;;1.90;0.50;;;;;;;10.11;60.30;96922.56;1223682;75;2923621;-64
2024/03/12 08:06:23;;;;;;;1.45;0.20;;;;;;;10.23;60.12;96926.84;1223131;75;2929937;-65
2024/03/12 08:08:56;;;;;;;1.55;0.40;;;;;;;10.26;59.11;96920.38;1222292;75;2930378;-64
2024/03/12 08:11:30;;;;;;;1.65;0.40;;;;;;;10.29;59.63;96919.41;1222064;75;2933703;-63
2024/03/12 08:14:03;;;;;;;0.70;0.30;;;;;;;10.42;58.95;96917.00;1223200;75;2924736;-65
2024/03/12 08:16:36;;;;;;;2.50;0.50;;;;;;;10.44;59.25;96924.72;1220702;75;2929749;-64
2024/03/12 08:19:12;;;;;;;15.90;1.65;;;;;;;10.44;58.50;96911.03;1223432;75;2930418;-65
2024/03/12 08:21:45;;;;;;;1.05;0.50;;;;;;;10.43;57.86;96907.53;1221125;75;2933308;-68
2024/03/12 08:24:18;;;;;;;1.95;0.70;;;;;;;10.58;59.45;96907.34;1222387;75;2917358;-64
2024/03/12 08:26:51;;;;;;;2.50;0.40;;;;;;;10.71;58.16;96917.06;1221261;75;2931763;-64
2024/03/12 08:29:24;;;;;;;0.80;0.40;;;;;;;10.80;58.20;96925.03;1221325;75;2939545;-64
2024/03/12 08:31:58;;;;;;;0.75;0.40;;;;;;;10.81;57.39;96935.50;1221741;75;2922593;-64
2024/03/12 08:34:33;;;;;;;0.45;0.35;;;;;;;10.75;56.48;96928.50;1223200;75;2924207;-64
2024/03/12 08:37:09;;;;;;;0.80;0.45;;;;;;;10.78;56.49;96936.50;1221076;75;2928061;-64
2024/03/12 08:39:42;;;;;;;1.70;0.50;;;;;;;10.95;57.12;96946.75;1222797;75;2925541;-62
2024/03/12 08:42:14;;;;;;;0.60;0.40;;;;;;;10.91;57.23;96929.78;1222828;75;2931901;-63
2024/03/12 08:44:47;;;;;;;0.40;0.35;;;;;;;10.83;56.32;96935.03;1223027;75;2922144;-63
2024/03/12 08:47:21;;;;;;;6.50;0.75;;;;;;;10.79;56.83;96937.25;1221274;75;2928753;-65
2024/03/12 08:49:57;;;;;;;2.90;0.60;;;;;;;10.79;56.61;96926.28;1221850;75;2923677;-64
2024/03/12 08:52:35;;;;;;;0.25;0.25;;;;;;;10.85;55.73;96936.03;1223379;75;2923453;-64
2024/03/12 08:55:09;;;;;;;1.90;0.90;;;;;;;10.98;56.28;96937.53;1223388;75;2922494;-65
2024/03/12 08:57:42;;;;;;;1.75;0.50;;;;;;;10.88;56.99;96942.50;1221421;75;2932136;-63
2024/03/12 09:00:19;;;;;;;4.15;0.30;;;;;;;10.91;54.83;96946.22;1221600;75;2930124;-64
2024/03/12 09:02:52;;;;;;;0.60;0.60;;;;;;;10.98;55.44;96938.28;1222594;75;2927800;-65
2024/03/12 09:05:27;;;;;;;0.80;0.40;;;;;;;11.16;55.28;96948.00;1222068;75;2926469;-63
2024/03/12 09:08:03;;;;;;;1.20;0.40;;;;;;;11.04;54.47;96946.47;1223105;75;2927421;-66
2024/03/12 09:10:40;;;;;;;0.30;0.30;;;;;;;11.29;54.80;96948.25;1222871;75;2930225;-64
2024/03/12 09:13:16;;;;;;;1.15;0.30;;;;;;;11.21;55.09;96955.50;1223241;75;2928113;-62
2024/03/12 09:15:51;;;;;;;2.90;0.60;;;;;;;11.38;54.24;96941.06;1223269;75;2919685;-64
2024/03/12 09:18:27;;;;;;;1.65;0.30;;;;;;;11.41;54.36;96945.53;1221241;75;2924723;-64
2024/03/12 09:21:04;;;;;;;0.70;0.35;;;;;;;11.50;53.57;96959.72;1183154;75;6154622;-65
2024/03/12 09:23:37;;;;;;;0.85;0.50;;;;;;;11.21;54.05;96952.00;1222747;75;2933447;-64
2024/03/12 09:26:10;;;;;;;0.65;0.50;;;;;;;11.21;53.96;96960.97;1218438;75;3221958;-64
2024/03/12 09:28:43;;;;;;;0.20;0.20;;;;;;;11.43;53.76;96973.94;1222976;75;2937368;-66
2024/03/12 09:31:16;;;;;;;3.20;0.50;;;;;;;11.44;55.13;96972.69;1221656;75;2925538;-65
2024/03/12 09:33:49;;;;;;;0.70;0.40;;;;;;;11.20;53.40;96948.50;1223885;75;2925774;-65
2024/03/12 09:36:24;;;;;;;0.30;0.20;;;;;;;11.31;53.39;96975.16;1222424;75;2935881;-64
2024/03/12 09:38:57;;;;;;;5.15;0.60;;;;;;;11.25;52.84;96977.88;1223073;75;2921973;-64
2024/03/12 09:41:32;;;;;;;0.60;0.30;;;;;;;11.22;51.99;96972.66;1222520;75;2936740;-65
2024/03/12 09:44:05;;;;;;;1.15;0.50;;;;;;;11.19;52.71;96968.94;1220548;75;2935262;-65
2024/03/12 09:46:41;;;;;;;3.55;1.00;;;;;;;11.27;52.91;96980.16;1186694;75;5833260;-65
2024/03/12 09:49:18;;;;;;;0.85;0.35;;;;;;;11.28;53.17;96976.16;1220235;75;2939454;-65
2024/03/12 09:51:53;;;;;;;2.30;0.45;;;;;;;11.24;53.76;96990.09;1222436;75;2926808;-65
2024/03/12 09:54:27;;;;;;;3.15;0.65;;;;;;;11.16;52.87;96983.63;1221979;75;2933749;-66
2024/03/12 09:57:00;;;;;;;0.50;0.30;;;;;;;11.35;54.16;96991.34;1222460;75;2924801;-65
2024/03/12 09:59:36;;;;;;;0.65;0.30;;;;;;;11.26;53.11;97006.06;1219360;75;3030763;-66
2024/03/12 10:02:10;;;;;;;1.80;0.60;;;;;;;11.01;52.92;97003.00;1205159;75;3223416;-65
2024/03/12 10:04:44;;;;;;;0.85;0.30;;;;;;;10.97;53.14;96974.38;1221280;75;2932074;-64
2024/03/12 10:07:24;;;;;;;0.50;0.40;;;;;;;11.00;53.34;96998.78;1222634;75;2920449;-65
2024/03/12 10:09:57;;;;;;;0.60;0.40;;;;;;;11.24;53.72;97003.06;1222625;75;2929414;-65
2024/03/12 10:12:30;;;;;;;0.65;0.30;;;;;;;11.03;53.58;97025.16;1222718;75;2924432;-65
2024/03/12 10:15:03;;;;;;;2.05;0.40;;;;;;;11.12;53.17;97018.72;1220530;75;2938563;-64
2024/03/12 10:17:36;;;;;;;1.65;0.55;;;;;;;11.37;52.98;97017.00;1223014;75;2924908;-66
2024/03/12 10:20:15;;;;;;;6.60;0.40;;;;;;;11.23;52.58;97004.28;1223470;75;2926384;-65
2024/03/12 10:22:51;;;;;;;2.95;0.40;;;;;;;11.20;53.35;97019.72;1223263;75;2925758;-65
2024/03/12 10:25:26;;;;;;;0.45;0.20;;;;;;;11.20;53.37;97024.47;1222560;75;2924174;-64
2024/03/12 10:27:59;;;;;;;0.60;0.30;;;;;;;11.12;52.83;97010.50;1223188;75;2912978;-68
2024/03/12 10:30:31;;;;;;;0.90;0.50;;;;;;;11.20;53.38;97019.00;1222768;75;2923588;-64
2024/03/12 10:33:20;;;;;;;0.40;0.30;;;;;;;11.05;53.18;97022.69;1223086;75;2921352;-63
2024/03/12 10:35:53;;;;;;;3.30;0.70;;;;;;;11.02;52.88;97015.47;1223321;75;2928533;-65
2024/03/12 10:38:32;;;;;;;2.35;0.40;;;;;;;11.24;53.42;97033.19;1223105;75;2925072;-63
2024/03/12 10:41:19;;;;;;;5.05;0.60;;;;;;;11.15;53.97;97036.16;1222677;75;2936311;-68
2024/03/12 10:43:55;;;;;;;1.25;0.45;;;;;;;11.22;52.97;97035.69;1222748;75;2933236;-64
2024/03/12 10:46:28;;;;;;;0.95;0.75;;;;;;;11.21;53.94;97043.16;1223162;75;2928025;-66
2024/03/12 10:49:02;;;;;;;1.85;0.50;;;;;;;11.29;53.45;97038.69;1221386;75;2954297;-65
2024/03/12 10:51:35;;;;;;;0.40;0.20;;;;;;;11.20;53.40;97052.59;1221742;75;2935304;-63
2024/03/12 10:54:17;;;;;;;0.70;0.45;;;;;;;11.27;53.39;97052.13;1223363;75;2926443;-67
2024/03/12 10:56:51;;;;;;;2.45;0.65;;;;;;;11.20;52.70;97060.81;1223286;75;2926868;-64
2024/03/12 10:59:25;;;;;;;4.85;0.50;;;;;;;11.33;54.06;97054.91;1222610;75;2928316;-64
2024/03/12 11:02:00;;;;;;;3.10;0.30;;;;;;;11.24;54.00;97053.13;1223448;75;2921938;-64
2024/03/12 11:04:35;;;;;;;0.70;0.40;;;;;;;11.24;53.46;97052.38;1222639;75;2926108;-65
2024/03/12 11:07:08;;;;;;;6.60;0.60;;;;;;;11.12;53.35;97057.06;1217290;75;3006548;-66
2024/03/12 11:09:44;;;;;;;1.45;0.40;;;;;;;11.37;53.52;97063.59;1222544;75;2923405;-64
2024/03/12 11:12:19;;;;;;;0.45;0.30;;;;;;;11.18;53.38;97052.34;1222482;75;2922342;-65
2024/03/12 11:14:52;;;;;;;0.95;0.50;;;;;;;11.18;53.15;97057.81;1220441;75;2928488;-64
2024/03/12 11:17:31;;;;;;;1.85;0.30;;;;;;;11.08;53.49;97064.78;1220111;67;2946220;-64
2024/03/12 11:20:06;;;;;;;0.50;0.40;;;;;;;11.22;52.75;97061.09;1220410;75;2926411;-68
2024/03/12 11:22:45;;;;;;;1.10;0.30;;;;;;;11.23;53.00;97059.84;1216422;75;2935565;-66
2024/03/12 11:25:33;;;;;;;0.25;0.25;;;;;;;11.36;53.39;97066.84;1219233;75;2936246;-66
2024/03/12 11:28:28;;;;;;;1.10;0.40;;;;;;;11.15;53.96;97080.00;1218553;75;2934275;-66
2024/03/12 11:31:07;;;;;;;10.20;0.50;;;;;;;11.12;53.40;97067.28;1219714;75;2937776;-64
2024/03/12 11:33:49;;;;;;;10.15;0.90;;;;;;;10.96;52.42;97058.50;1220262;75;2931685;-64
2024/03/12 11:36:37;;;;;;;0.25;0.20;;;;;;;11.22;53.15;97063.06;1220898;75;2932695;-67
2024/03/12 11:39:15;;;;;;;0.60;0.40;;;;;;;11.00;52.69;97067.25;1205599;75;3330223;-64
2024/03/12 11:42:18;;;;;;;0.90;0.30;;;;;;;11.14;53.78;97062.81;1221510;75;2928441;-63
2024/03/12 11:44:54;;;;;;;0.30;0.30;;;;;;;11.16;53.56;97071.28;1221673;75;2920969;-64
2024/03/12 11:47:36;;;;;;;0.30;0.30;;;;;;;11.13;53.52;97071.53;1223139;75;2928400;-66
2024/03/12 11:50:34;;;;;;;1.95;0.20;;;;;;;11.17;53.95;97070.03;1223270;75;2913119;-65
2024/03/12 11:53:22;;;;;;;0.45;0.30;;;;;;;11.18;54.83;97068.78;1222710;75;2931225;-64
2024/03/12 11:55:57;;;;;;;1.25;0.30;;;;;;;11.43;54.14;97067.13;1221064;75;2927052;-63
2024/03/12 11:58:38;;;;;;;0.30;0.20;;;;;;;11.17;52.82;97061.06;1223292;75;2918844;-64
2024/03/12 12:01:13;;;;;;;0.80;0.50;;;;;;;11.24;53.08;97077.78;1222522;75;2926390;-65